Virginia Peak (RGX), Nevada Weather observations

 Day   Time    Ave.   Ave.  Ave.  Vector  Max.   Total    Solar  
  of    of     Air    Rel.  Wind   Wind   Wind  Precip.   Rad.   
Year   Day     Temp.  Hum.  Speed  Dir.   Gust                   
2014   (PST)    F      %     mph   deg.    mph    in.     W/m2  
----------------------------------------------------------------
 273   12:15  999.0    67   13.2   324    25.8   999.00     999
 273   12:30   46.0    67   19.2   274    21.0   999.00     999
 273   12:45   47.0    64   21.6   276    21.6   999.00     999
 273   13:00   47.0    66   16.8   281    22.2   999.00     999
 273   13:15   48.0    62   19.2   277    25.2   999.00     999
 273   13:30   48.0    60   14.4   247    25.2   999.00     999
 273   13:45   49.0    57   12.6   233    20.4   999.00     999
 273   14:00   47.0    61   14.4   295    20.4   999.00     999
 273   14:15  999.0    64   65.6   294    18.0   999.00     999
 273   14:30   47.0    62   14.4   287    20.0   999.00     999
 273   14:45   48.0    61    0.4   282    22.8   999.00     999
 273   15:00   48.0    58   13.2   277    21.0   999.00     999
 273   15:15   48.0    55   16.8   289    21.6   999.00     999
 273   15:30   49.0    56   18.0   279    22.8   999.00     999
 273   15:45   47.0   999   20.4   999    24.0   999.00     999
 273   16:00   45.0    59   18.6   311    22.8   999.00     999
 273   16:15   46.0    58   17.4   309    20.4   999.00     999
 273   16:30   46.0    62   12.6   347    19.8   999.00     999
 273   16:45   45.0    59   12.0   331    17.4   999.00     999
 273   17:00   45.0    57   20.4   309    20.4   999.00     999
 273   17:15   44.0    60   18.0   336    21.6   999.00     999
 273   17:30   44.0    56   16.8   325    19.2   999.00     999
 273   17:45   44.0    54   19.2   999    22.2   999.00     999
 273   18:00   44.0    53  999.0   321    22.2   999.00     999
 273   18:15  999.0    54   21.6   339    25.2   999.00     999
 273   18:30   43.0    51   18.0   338    23.4   999.00     999
 273   18:45   42.0    64    9.6   336    24.0   999.00     999
 273   19:00   41.0    68   16.2     4    16.8   999.00     999
 273   19:15   40.0    65   12.6    98    16.8   999.00     999
 273   19:30  999.0   999   10.2   339   999.0   999.00     999
 273   19:45   39.0    60   10.2    20    13.8   999.00     999
 273   20:00   39.0    59    8.4   296    16.8   999.00     999
 273   20:15   38.0    57   10.2   352    15.0   999.00     999
 273   20:30   38.0    56   14.4   346    19.2   999.00     999
 273   20:45   38.0    55   11.4    22    16.2   999.00     999
 273   21:00   37.0    56   12.0    24    17.4   999.00     999
 273   21:15   37.0    58   13.2   344    15.0   999.00     999
 273   21:30   36.0    59   13.8     4    16.8   999.00     999
 273   21:45   36.0    59    7.2    33    13.8   999.00     999
 273   22:00   36.0    59   15.0   352    18.0   999.00     999
 273   22:15   36.0    59   13.2   350    17.4   999.00     999
 273   22:30   35.0    59   17.4   347    19.2   999.00     999
 273   22:45   35.0    60   16.8   330    19.2   999.00     999
 273   23:00   99.0    62   15.6   339    18.0   999.00     999
 273   23:15  999.0   999  999.0   999   999.0   999.00     999
 273   23:30  999.0   999  999.0   999   999.0   999.00     999
 273   23:45  999.0   999  999.0   999   999.0   999.00     999
 274    0:00  999.0   999  999.0   999   999.0   999.00     999
 274    0:15   34.0   999   10.8    11    15.0   999.00     999
 274    0:30   34.0    65   10.2    89   999.0   999.00     999
 274    0:45   34.0    28   10.8    46    13.2   999.00     999
 274    1:00   33.0    53   10.2     0    13.2   999.00     999
 274    1:15  999.0   999    8.4   329   165.6   999.00     999
 274    1:30   33.0    60    7.8   354     9.6   999.00     999
 274    1:45   24.0    60    6.6    45   999.0   999.00     999
 274    2:00   33.0    59    7.8     1     9.0   999.00     999
 274    2:15  999.0    60    8.4     3    10.2   999.00     999
 274    2:30  999.0   999    8.4    16    10.8   999.00     999
 274    2:45   33.0    59    7.8   999   999.0   999.00     999
 274    3:00   33.0    60    8.4    27   999.0   999.00     999
 274    3:15   33.0    60    7.2    34   999.0   999.00     999
 274    3:30   32.0    63    5.4    67     9.6   999.00     999
 274    3:45   32.0    65    7.2   999    10.2   999.00     999
 274    4:00   96.0    64    7.8     9     9.0   999.00     999
 274    4:15  999.0   999  999.0   999   999.0   999.00     999
 274    4:30   31.0    68    8.4     3    11.4   999.00     999
 274    4:45  999.0   999  999.0   999   999.0   999.00     999
 274    5:00   31.0    71    9.0    40    12.0   999.00     999
 274    5:15   63.0    70   11.4    32    11.4   999.00     999
 274    5:30   31.0    68   12.0    48    13.2   999.00     999
 274    5:45   31.0    66   10.2   999    12.8   999.00     999
 274    6:00   31.0    65   12.0   999    13.8   999.00     999
 274    6:15   32.0    64   12.0    60   999.0   999.00     999
 274    6:30   32.0    64   12.6    55    13.8   999.00     999
 274    6:45   33.0    63   15.0    60    16.8   999.00     999
 274    7:00   33.0    63   12.6   999    16.8   999.00     999
 274    7:15   33.0    63   10.8    55    16.2   999.00     999
 274    7:30   33.0    61   14.4    66    16.8   999.00     999
 274    7:45   33.0   999   15.6    67    18.6   999.00     999
 274    8:00   32.0    69   10.8   999    16.8   999.00     999
 274    8:15  999.0   999  999.0   999   999.0   999.00     999
 274    8:30   34.0    60   13.8    62    15.6   999.00     999
 274    8:45   35.0    59   15.0    60    16.8   999.00     999
 274    9:00   35.0    59   13.2    63    18.0   999.00     999
 274    9:15   36.0    60   11.4    51    16.8   999.00     999
 274    9:30   36.0    59   15.0    83    18.0   999.00     999
 274    9:45   35.0    62   10.8    88    19.2   999.00     999
 274   10:00   36.0   999   12.6    84    16.8   999.00     999
 274   10:15   37.0    56   10.8    65    15.6   999.00     999
 274   10:30   37.0    57   14.4    78    16.8   999.00     999
 274   10:45   37.0    26   13.2    61    21.0   999.00     999
 274   11:00   37.0    58   19.2   107    21.0   999.00     999
 274   11:15   37.0    55   17.4   107    22.2   999.00     999
 274   11:30   37.0    56   19.2    83    23.4   999.00     999
 274   11:45   38.0    57   19.2    80    25.2   999.00     999
 274   12:00   38.0    58   18.0   100    24.6   999.00     999

Return to Virginia Peak (RGX) graphs page.


Western Regional Climate Center,wrcc@dri.edu